Time;durP1;ratioP1;P1;durP2;ratioP2;P2;SDS_P1;SDS_P2;PMS_P1;PMS_P2;Temp;Humidity;BMP_temperature;BMP_pressure;BME280_temperature;BME280_humidity;BME280_pressure;Samples;Min_cycle;Max_cycle;Signal;HPM_P1;HPM_P2
2023/02/28 00:01:15;;;;;;;6.27;5.67;;;;;;;-4.57;100.00;97754.16;5045504;28;20206;-71
2023/02/28 00:03:43;;;;;;;5.80;5.30;;;;;;;-4.53;100.00;97755.72;5033066;28;20246;-73
2023/02/28 00:06:11;;;;;;;6.30;5.70;;;;;;;-4.53;100.00;97749.69;4997638;28;20215;-69
2023/02/28 00:08:38;;;;;;;5.67;5.17;;;;;;;-4.58;100.00;97741.31;5048931;28;20203;-70
2023/02/28 00:11:09;;;;;;;5.70;5.20;;;;;;;-4.62;100.00;97747.56;5049367;28;20199;-69
2023/02/28 00:13:38;;;;;;;5.43;5.03;;;;;;;-4.66;100.00;97749.44;5028903;28;20456;-70
2023/02/28 00:16:09;;;;;;;6.33;5.83;;;;;;;-4.61;100.00;97747.47;5044727;28;20453;-70
2023/02/28 00:18:37;;;;;;;5.87;5.37;;;;;;;-4.61;100.00;97741.47;5028530;28;20489;-71
2023/02/28 00:21:06;;;;;;;6.90;6.30;;;;;;;-4.68;100.00;97749.53;5019663;28;20736;-70
2023/02/28 00:23:34;;;;;;;5.70;5.20;;;;;;;-4.66;100.00;97734.78;5038007;28;20557;-71
2023/02/28 00:26:02;;;;;;;5.73;5.23;;;;;;;-4.66;100.00;97742.53;5046454;28;20511;-70
2023/02/28 00:28:30;;;;;;;5.43;5.03;;;;;;;-4.65;100.00;97749.38;5029528;28;20413;-71
2023/02/28 00:30:59;;;;;;;6.40;5.87;;;;;;;-4.64;100.00;97734.69;5047432;28;20775;-69
2023/02/28 00:33:29;;;;;;;6.17;5.67;;;;;;;-4.54;100.00;97737.66;5028679;28;21011;-71
2023/02/28 00:36:05;;;;;;;6.07;5.53;;;;;;;-4.55;100.00;97738.59;5044056;28;20738;-69
2023/02/28 00:38:33;;;;;;;5.63;5.17;;;;;;;-4.56;100.00;97736.91;5031255;28;20598;-71
2023/02/28 00:41:04;;;;;;;6.17;5.73;;;;;;;-4.66;100.00;97737.38;5048924;28;20198;-69
2023/02/28 00:43:33;;;;;;;7.50;6.43;;;;;;;-4.60;100.00;97731.03;5049188;28;20411;-71
2023/02/28 00:46:01;;;;;;;6.13;5.57;;;;;;;-4.62;100.00;97726.88;5028603;28;20221;-70
2023/02/28 00:48:30;;;;;;;7.83;5.43;;;;;;;-4.55;100.00;97733.41;5029023;28;20479;-70
2023/02/28 00:50:58;;;;;;;6.17;5.57;;;;;;;-4.72;100.00;97727.31;5039635;28;20305;-70
2023/02/28 00:53:26;;;;;;;6.47;5.97;;;;;;;-4.69;100.00;97729.75;5011761;28;20608;-70
2023/02/28 00:55:53;;;;;;;6.73;6.13;;;;;;;-4.70;100.00;97730.69;5049557;28;20206;-70
2023/02/28 00:58:21;;;;;;;5.90;5.40;;;;;;;-4.81;100.00;97717.41;5040157;28;20813;-71
2023/02/28 01:00:49;;;;;;;5.90;5.33;;;;;;;-4.91;100.00;97729.97;5028508;28;20441;-71
2023/02/28 01:03:17;;;;;;;7.07;5.63;;;;;;;-4.99;100.00;97719.13;5022842;28;20231;-71
2023/02/28 01:05:47;;;;;;;6.30;5.27;;;;;;;-5.10;100.00;97715.31;5049708;28;20662;-71
2023/02/28 01:08:15;;;;;;;5.57;5.17;;;;;;;-5.21;100.00;97721.91;4996010;28;20767;-69
2023/02/28 01:10:43;;;;;;;5.17;4.77;;;;;;;-5.33;100.00;97719.00;5046052;28;20211;-71
2023/02/28 01:13:11;;;;;;;5.90;5.27;;;;;;;-5.39;100.00;97716.69;5046289;28;20206;-70
2023/02/28 01:15:40;;;;;;;5.17;4.77;;;;;;;-5.49;100.00;97713.69;5033382;28;20434;-71
2023/02/28 01:18:08;;;;;;;5.73;4.93;;;;;;;-5.52;100.00;97712.06;5044573;28;20643;-70
2023/02/28 01:20:37;;;;;;;5.57;5.07;;;;;;;-5.54;100.00;97720.81;5030599;28;20464;-71
2023/02/28 01:23:06;;;;;;;6.60;5.83;;;;;;;-5.62;100.00;97716.00;5017544;28;20211;-69
2023/02/28 01:25:35;;;;;;;6.20;5.70;;;;;;;-5.70;100.00;97708.59;5035969;28;20223;-71
2023/02/28 01:28:03;;;;;;;5.57;5.17;;;;;;;-5.66;100.00;97717.03;5048289;28;20469;-70
2023/02/28 01:30:31;;;;;;;7.10;6.50;;;;;;;-5.73;100.00;97713.88;5029449;28;21458;-69
2023/02/28 01:32:59;;;;;;;5.80;5.40;;;;;;;-5.78;100.00;97715.03;5048135;28;20297;-69
2023/02/28 01:35:26;;;;;;;6.63;6.03;;;;;;;-5.78;100.00;97712.44;5026569;28;20748;-71
2023/02/28 01:37:54;;;;;;;6.47;5.67;;;;;;;-5.76;100.00;97720.94;5043823;28;20795;-68
2023/02/28 01:40:23;;;;;;;6.40;5.90;;;;;;;-5.77;100.00;97711.53;5001235;28;20492;-70
2023/02/28 01:42:50;;;;;;;6.50;5.90;;;;;;;-5.83;100.00;97713.50;5050844;28;20444;-71
2023/02/28 01:45:23;;;;;;;6.47;5.87;;;;;;;-5.84;100.00;97719.56;5047449;28;20749;-71
2023/02/28 01:47:52;;;;;;;7.37;6.67;;;;;;;-5.90;100.00;97724.97;5026966;28;21017;-69
2023/02/28 01:50:22;;;;;;;7.50;6.90;;;;;;;-5.87;100.00;97721.44;5024409;28;20847;-71
2023/02/28 01:52:51;;;;;;;7.07;6.37;;;;;;;-5.81;100.00;97724.59;5043591;28;21056;-70
2023/02/28 01:55:20;;;;;;;6.50;6.00;;;;;;;-5.85;100.00;97719.63;4998387;28;21322;-70
2023/02/28 01:57:50;;;;;;;6.03;5.37;;;;;;;-5.91;100.00;97718.13;5044928;28;20217;-71
2023/02/28 02:00:20;;;;;;;6.80;6.17;;;;;;;-5.92;100.00;97713.88;5039200;28;20878;-70
2023/02/28 02:02:50;;;;;;;6.20;5.70;;;;;;;-5.93;100.00;97706.22;5027650;28;20444;-70
2023/02/28 02:05:21;;;;;;;6.97;5.87;;;;;;;-5.96;100.00;97704.59;5045081;28;20456;-69
2023/02/28 02:07:50;;;;;;;7.10;6.40;;;;;;;-5.98;100.00;97693.50;5022604;28;21026;-70
2023/02/28 02:10:21;;;;;;;7.40;6.70;;;;;;;-6.02;100.00;97692.84;5041876;28;20244;-71
2023/02/28 02:13:15;;;;;;;7.60;6.40;;;;;;;-5.99;100.00;97691.84;4998850;28;20450;-70
2023/02/28 02:15:45;;;;;;;8.67;6.73;;;;;;;-6.02;100.00;97694.59;5043401;28;20471;-71
2023/02/28 02:18:20;;;;;;;5.87;5.43;;;;;;;-6.04;100.00;97688.66;5024910;28;20322;-69
2023/02/28 02:21:22;;;;;;;7.07;6.43;;;;;;;-6.07;100.00;97675.91;5040686;28;20436;-70
2023/02/28 02:24:15;;;;;;;6.53;6.03;;;;;;;-6.11;100.00;97690.66;5027022;28;20472;-71
2023/02/28 02:26:59;;;;;;;9.30;8.13;;;;;;;-6.02;100.00;97692.00;5006090;28;20450;-71
2023/02/28 02:30:00;;;;;;;21.47;14.20;;;;;;;-6.06;100.00;97686.16;5049289;28;20199;-71
2023/02/28 02:33:10;;;;;;;7.63;6.83;;;;;;;-6.05;100.00;97692.13;5031714;28;20520;-69
2023/02/28 02:35:46;;;;;;;7.27;6.53;;;;;;;-6.19;100.00;97683.28;5056980;28;21032;-69
2023/02/28 02:38:20;;;;;;;8.03;7.27;;;;;;;-6.11;100.00;97690.66;5031353;28;20820;-70
2023/02/28 02:40:55;;;;;;;6.67;6.10;;;;;;;-6.14;100.00;97683.91;5048503;28;21038;-70
2023/02/28 02:43:26;;;;;;;6.73;6.13;;;;;;;-6.19;100.00;97685.00;5000758;28;20456;-70
2023/02/28 02:45:57;;;;;;;6.80;6.17;;;;;;;-6.19;100.00;97685.84;5043174;28;20449;-71
2023/02/28 02:48:26;;;;;;;7.37;6.77;;;;;;;-6.22;100.00;97685.13;5029553;28;20448;-70
2023/02/28 02:50:58;;;;;;;6.77;6.27;;;;;;;-6.20;100.00;97688.50;5048174;28;20453;-70
2023/02/28 02:53:29;;;;;;;7.70;7.07;;;;;;;-6.25;100.00;97692.09;5043723;28;20462;-69
2023/02/28 02:55:59;;;;;;;8.63;7.57;;;;;;;-6.32;100.00;97692.44;5040037;28;20543;-70
2023/02/28 02:58:29;;;;;;;7.37;6.67;;;;;;;-6.41;100.00;97684.19;5005846;28;20960;-69
2023/02/28 03:00:59;;;;;;;7.63;7.03;;;;;;;-6.43;100.00;97686.00;5049117;28;20481;-69
2023/02/28 03:03:29;;;;;;;9.20;7.20;;;;;;;-6.34;100.00;97694.25;5029704;28;20547;-70
2023/02/28 03:06:00;;;;;;;7.37;6.67;;;;;;;-6.28;100.00;97694.81;5048067;28;20775;-71
2023/02/28 03:08:29;;;;;;;7.57;6.83;;;;;;;-6.29;100.00;97702.63;5042290;28;20460;-69
2023/02/28 03:10:58;;;;;;;7.90;6.83;;;;;;;-6.32;100.00;97697.59;5036286;28;20539;-71
2023/02/28 03:13:43;;;;;;;8.47;7.77;;;;;;;-6.37;100.00;97692.66;4980342;28;20536;-69
2023/02/28 03:16:24;;;;;;;9.10;7.40;;;;;;;-6.36;100.00;97688.31;5050296;28;20528;-69
2023/02/28 03:18:58;;;;;;;7.50;6.90;;;;;;;-6.43;100.00;97692.91;5028498;28;20452;-71
2023/02/28 03:21:30;;;;;;;8.33;6.93;;;;;;;-6.47;100.00;97687.03;5045147;28;20441;-69
2023/02/28 03:24:05;;;;;;;8.10;7.23;;;;;;;-6.37;100.00;97702.09;5049983;28;20860;-71
2023/02/28 03:26:35;;;;;;;7.67;6.93;;;;;;;-6.46;100.00;97695.59;5028456;28;20921;-72
2023/02/28 03:29:05;;;;;;;8.20;7.47;;;;;;;-6.48;100.00;97698.25;5005506;28;20457;-70
2023/02/28 03:31:36;;;;;;;8.73;7.33;;;;;;;-6.53;100.00;97692.47;5047149;28;20970;-70
2023/02/28 03:34:06;;;;;;;9.97;8.60;;;;;;;-6.53;100.00;97697.63;5030505;28;20465;-71
2023/02/28 03:36:43;;;;;;;8.27;7.47;;;;;;;-6.48;100.00;97702.56;5044758;28;21043;-69
2023/02/28 03:39:15;;;;;;;8.70;7.77;;;;;;;-6.55;100.00;97692.50;5047092;28;20457;-69
2023/02/28 03:41:44;;;;;;;9.07;8.03;;;;;;;-6.49;100.00;97706.88;5039226;28;20468;-68
2023/02/28 03:44:16;;;;;;;8.73;8.00;;;;;;;-6.40;100.00;97701.34;5044999;28;20976;-70
2023/02/28 03:46:49;;;;;;;9.37;8.47;;;;;;;-6.44;100.00;97689.47;5026226;28;20732;-71
2023/02/28 03:49:20;;;;;;;9.37;8.43;;;;;;;-6.39;100.00;97691.88;5030370;28;20419;-69
2023/02/28 03:51:50;;;;;;;8.43;7.73;;;;;;;-6.38;100.00;97701.28;5045504;28;20479;-71
2023/02/28 03:54:21;;;;;;;8.67;7.80;;;;;;;-6.47;100.00;97684.47;5045705;28;20476;-69
2023/02/28 03:56:53;;;;;;;9.17;8.37;;;;;;;-6.36;100.00;97709.78;5031960;28;20441;-70
2023/02/28 03:59:25;;;;;;;8.93;8.07;;;;;;;-6.45;100.00;97697.28;5019362;28;20442;-70
2023/02/28 04:01:54;;;;;;;9.10;8.23;;;;;;;-6.49;100.00;97704.31;5044218;28;20461;-71
2023/02/28 04:04:23;;;;;;;9.13;8.33;;;;;;;-6.52;100.00;97711.31;5027792;28;20641;-69
2023/02/28 04:06:52;;;;;;;9.17;8.37;;;;;;;-6.53;100.00;97702.78;5047085;28;20457;-71
2023/02/28 04:09:20;;;;;;;8.37;7.60;;;;;;;-6.55;100.00;97707.97;5045586;28;20794;-69
2023/02/28 04:11:52;;;;;;;9.43;8.53;;;;;;;-6.57;100.00;97707.22;5031160;28;20736;-71
2023/02/28 04:14:20;;;;;;;9.37;8.47;;;;;;;-6.56;100.00;97708.06;5023396;28;20219;-70
2023/02/28 04:16:48;;;;;;;9.73;7.73;;;;;;;-6.59;100.00;97708.19;5032700;28;20575;-70
2023/02/28 04:19:16;;;;;;;9.43;8.57;;;;;;;-6.54;100.00;97711.41;5046057;28;20448;-69
2023/02/28 04:21:45;;;;;;;9.30;8.37;;;;;;;-6.50;100.00;97717.25;5034853;28;21116;-72
2023/02/28 04:24:16;;;;;;;9.73;8.83;;;;;;;-6.53;100.00;97713.09;5043495;28;20849;-71
2023/02/28 04:26:45;;;;;;;9.40;8.50;;;;;;;-6.60;100.00;97704.75;5045375;28;20563;-72
2023/02/28 04:29:14;;;;;;;9.67;8.77;;;;;;;-6.64;100.00;97707.50;5029154;28;20326;-70
2023/02/28 04:31:41;;;;;;;9.97;8.47;;;;;;;-6.60;100.00;97704.75;5013466;28;21111;-72
2023/02/28 04:34:09;;;;;;;10.47;9.10;;;;;;;-6.60;100.00;97707.34;5048996;28;20226;-69
2023/02/28 04:36:37;;;;;;;10.60;9.40;;;;;;;-6.58;100.00;97709.88;5030533;28;20461;-69
2023/02/28 04:39:05;;;;;;;9.03;8.27;;;;;;;-6.61;100.00;97705.66;5042232;28;20454;-70
2023/02/28 04:41:33;;;;;;;13.13;9.97;;;;;;;-6.64;100.00;97715.25;5041659;28;21295;-68
2023/02/28 04:44:01;;;;;;;9.77;8.87;;;;;;;-6.62;100.00;97708.31;5026108;28;20556;-70
2023/02/28 04:46:30;;;;;;;11.13;9.37;;;;;;;-6.61;100.00;97710.00;5000790;28;20476;-71
2023/02/28 04:48:57;;;;;;;10.53;9.43;;;;;;;-6.58;100.00;97715.03;5047663;28;20751;-72
2023/02/28 04:51:25;;;;;;;10.60;9.50;;;;;;;-6.56;100.00;97714.03;5024473;28;20464;-70
2023/02/28 04:53:53;;;;;;;9.20;8.33;;;;;;;-6.63;100.00;97697.16;5051091;28;20480;-71
2023/02/28 04:56:21;;;;;;;10.27;9.30;;;;;;;-6.55;100.00;97710.56;5048763;28;20447;-70
2023/02/28 04:58:50;;;;;;;10.30;8.10;;;;;;;-6.55;100.00;97709.72;5024538;28;20229;-70
2023/02/28 05:01:24;;;;;;;10.00;9.07;;;;;;;-6.57;100.00;97703.81;5033379;28;20481;-70
2023/02/28 05:03:53;;;;;;;10.87;9.83;;;;;;;-6.57;100.00;97709.78;5046942;28;20468;-74
2023/02/28 05:06:23;;;;;;;10.27;9.13;;;;;;;-6.54;100.00;97712.22;5037722;28;20461;-70
2023/02/28 05:08:51;;;;;;;11.80;9.83;;;;;;;-6.43;100.00;97708.38;5049076;28;20556;-71
2023/02/28 05:11:21;;;;;;;11.63;10.00;;;;;;;-6.41;100.00;97707.41;5020372;28;20437;-71
2023/02/28 05:13:51;;;;;;;10.83;9.17;;;;;;;-6.25;100.00;97705.00;5046619;28;20218;-70
2023/02/28 05:16:19;;;;;;;10.40;9.30;;;;;;;-6.21;100.00;97697.97;5031473;28;20526;-72
2023/02/28 05:18:47;;;;;;;9.83;8.90;;;;;;;-6.28;100.00;97707.72;5018156;28;20452;-71
2023/02/28 05:21:27;;;;;;;13.27;10.33;;;;;;;-6.20;100.00;97703.97;5042237;28;20222;-72
2023/02/28 05:23:56;;;;;;;10.23;9.23;;;;;;;-6.18;100.00;97703.00;5028192;28;20488;-70
2023/02/28 05:26:24;;;;;;;10.67;9.03;;;;;;;-5.78;100.00;97705.53;5048827;28;21277;-72
2023/02/28 05:28:53;;;;;;;9.50;8.60;;;;;;;-5.70;100.00;97700.84;5046695;28;20871;-70
2023/02/28 05:31:21;;;;;;;9.03;8.00;;;;;;;-5.57;100.00;97703.72;5032501;28;20527;-70
2023/02/28 05:33:48;;;;;;;9.60;8.70;;;;;;;-5.32;100.00;97696.56;5016536;28;20770;-70
2023/02/28 05:36:16;;;;;;;8.83;7.93;;;;;;;-5.50;100.00;97698.25;5046517;28;20426;-71
2023/02/28 05:38:43;;;;;;;8.73;7.93;;;;;;;-5.32;100.00;97689.66;5029361;28;20465;-70
2023/02/28 05:41:11;;;;;;;8.33;7.63;;;;;;;-5.28;100.00;97692.94;5048163;28;21089;-70
2023/02/28 05:43:39;;;;;;;8.73;7.93;;;;;;;-5.06;100.00;97695.34;5050497;28;20441;-72
2023/02/28 05:46:10;;;;;;;7.73;7.13;;;;;;;-5.00;100.00;97699.38;5023018;28;20444;-70
2023/02/28 05:48:39;;;;;;;8.13;7.50;;;;;;;-5.05;100.00;97697.03;5015895;28;20468;-70
2023/02/28 05:51:08;;;;;;;8.77;7.97;;;;;;;-4.96;100.00;97685.38;5045064;28;20431;-70
2023/02/28 05:53:37;;;;;;;8.00;7.30;;;;;;;-4.97;100.00;97691.47;5032499;28;20491;-71
2023/02/28 05:56:05;;;;;;;8.67;7.87;;;;;;;-5.02;100.00;97691.69;5045580;28;20449;-71
2023/02/28 05:58:33;;;;;;;9.13;7.00;;;;;;;-4.94;100.00;97696.47;5047610;28;20457;-71
2023/02/28 06:01:02;;;;;;;8.50;7.63;;;;;;;-4.84;100.00;97691.72;5029065;28;20248;-70
2023/02/28 06:03:31;;;;;;;7.90;7.10;;;;;;;-4.72;100.00;97696.31;5006030;28;20198;-71
2023/02/28 06:05:58;;;;;;;12.30;8.17;;;;;;;-4.77;100.00;97692.25;5051456;28;20631;-70
2023/02/28 06:08:26;;;;;;;7.57;6.97;;;;;;;-4.80;99.44;97695.81;5048796;28;20464;-71
2023/02/28 06:10:54;;;;;;;8.73;7.80;;;;;;;-4.69;98.49;97708.22;5054016;28;20433;-70
2023/02/28 06:13:21;;;;;;;8.57;7.53;;;;;;;-4.78;97.44;97706.09;5050118;28;20523;-71
2023/02/28 06:15:49;;;;;;;7.63;6.87;;;;;;;-4.75;96.81;97706.75;5052238;28;20937;-71
2023/02/28 06:18:16;;;;;;;7.43;6.63;;;;;;;-4.79;96.24;97707.81;4986529;28;21830;-73
2023/02/28 06:20:48;;;;;;;7.57;6.97;;;;;;;-4.73;96.14;97702.38;5055597;28;20480;-73
2023/02/28 06:23:15;;;;;;;7.30;6.70;;;;;;;-4.58;94.41;97702.53;5045839;28;20204;-70
2023/02/28 06:25:45;;;;;;;8.50;7.67;;;;;;;-4.62;93.97;97703.59;5054457;28;20987;-71
2023/02/28 06:28:13;;;;;;;7.30;6.70;;;;;;;-4.48;92.68;97710.66;5049267;28;20460;-71
2023/02/28 06:30:40;;;;;;;7.97;7.07;;;;;;;-4.43;92.19;97712.09;5051887;28;20195;-72
2023/02/28 06:33:08;;;;;;;8.43;7.50;;;;;;;-4.40;91.77;97713.69;5027356;28;20210;-72
2023/02/28 06:35:36;;;;;;;8.53;7.73;;;;;;;-4.48;91.43;97706.31;5008511;28;20667;-72
2023/02/28 06:38:04;;;;;;;7.87;7.17;;;;;;;-4.37;91.38;97714.38;5047973;28;20207;-71
2023/02/28 06:40:34;;;;;;;7.67;6.83;;;;;;;-4.25;90.37;97719.84;5053856;28;20452;-71
2023/02/28 06:43:02;;;;;;;8.33;7.63;;;;;;;-4.32;90.30;97711.56;5048571;28;20219;-71
2023/02/28 06:45:30;;;;;;;9.67;7.43;;;;;;;-4.16;90.01;97727.16;5052969;28;20219;-72
2023/02/28 06:47:58;;;;;;;9.97;8.33;;;;;;;-4.13;89.21;97729.56;5031638;28;20437;-70
2023/02/28 06:50:27;;;;;;;8.90;7.67;;;;;;;-4.13;89.08;97739.94;5000825;28;20701;-73
2023/02/28 06:52:55;;;;;;;9.30;7.77;;;;;;;-4.08;89.37;97729.34;5047202;28;20449;-70
2023/02/28 06:55:24;;;;;;;9.57;7.70;;;;;;;-4.06;89.27;97737.88;5052184;28;20456;-72
2023/02/28 06:57:51;;;;;;;7.20;6.70;;;;;;;-4.02;88.82;97741.13;5050567;28;20269;-71
2023/02/28 07:00:20;;;;;;;9.43;7.67;;;;;;;-4.02;89.11;97739.38;5050651;28;20398;-71
2023/02/28 07:02:47;;;;;;;8.93;8.13;;;;;;;-3.99;88.83;97740.97;5050732;28;20223;-72
2023/02/28 07:05:15;;;;;;;11.73;10.27;;;;;;;-3.94;88.77;97741.59;4984609;28;21177;-71
2023/02/28 07:07:45;;;;;;;9.27;8.37;;;;;;;-3.87;88.47;97745.53;5051964;28;20226;-72
2023/02/28 07:10:13;;;;;;;8.77;7.87;;;;;;;-3.76;87.58;97744.97;5048745;28;20300;-72
2023/02/28 07:12:43;;;;;;;8.37;7.57;;;;;;;-3.72;87.91;97749.06;5050906;28;20214;-72
2023/02/28 07:15:11;;;;;;;9.87;8.07;;;;;;;-3.66;87.87;97747.91;5050329;28;21708;-71
2023/02/28 07:17:39;;;;;;;8.40;7.63;;;;;;;-3.63;87.42;97746.00;5049140;28;20195;-72
2023/02/28 07:20:08;;;;;;;8.57;7.67;;;;;;;-3.56;86.85;97746.50;5028225;28;20556;-71
2023/02/28 07:22:35;;;;;;;9.80;8.93;;;;;;;-3.55;86.87;97739.56;5004064;28;20219;-72
2023/02/28 07:25:03;;;;;;;10.07;9.17;;;;;;;-3.49;87.77;97744.41;5049557;28;20218;-71
2023/02/28 07:27:31;;;;;;;8.93;8.03;;;;;;;-3.33;86.82;97756.56;5051823;28;20633;-72
2023/02/28 07:30:01;;;;;;;9.63;8.70;;;;;;;-3.29;86.76;97753.69;5048630;28;20202;-70
2023/02/28 07:32:29;;;;;;;9.10;8.20;;;;;;;-3.21;86.64;97759.34;5043671;28;20210;-72
2023/02/28 07:34:57;;;;;;;9.03;8.23;;;;;;;-3.13;86.90;97747.69;5040195;28;20218;-70
2023/02/28 07:37:24;;;;;;;8.50;7.70;;;;;;;-3.05;86.49;97766.25;4995138;28;20243;-71
2023/02/28 07:39:52;;;;;;;9.10;8.20;;;;;;;-2.99;85.90;97752.13;5048843;28;20207;-70
2023/02/28 07:42:20;;;;;;;8.93;8.03;;;;;;;-2.93;85.44;97744.00;5048772;28;20246;-71
2023/02/28 07:44:48;;;;;;;9.43;8.53;;;;;;;-2.86;84.93;97747.06;5050069;28;20230;-71
2023/02/28 07:47:17;;;;;;;7.77;7.07;;;;;;;-2.80;84.12;97754.53;5045975;28;20383;-71
2023/02/28 07:49:46;;;;;;;8.77;8.00;;;;;;;-2.67;84.06;97750.31;5052733;28;20202;-71
2023/02/28 07:52:13;;;;;;;11.40;8.43;;;;;;;-2.57;83.81;97748.03;4980876;28;20215;-71
2023/02/28 07:54:41;;;;;;;10.70;8.77;;;;;;;-2.55;83.39;97745.34;5051254;28;21315;-71
2023/02/28 07:57:09;;;;;;;8.87;7.97;;;;;;;-2.44;83.05;97743.00;5047283;28;20241;-71
2023/02/28 07:59:36;;;;;;;9.33;8.43;;;;;;;-2.41;81.88;97744.56;5051829;28;21654;-71
2023/02/28 08:02:04;;;;;;;9.07;8.10;;;;;;;-2.33;81.92;97750.13;5051921;28;20214;-69
2023/02/28 08:04:33;;;;;;;8.83;7.93;;;;;;;-2.28;82.19;97757.66;5052180;28;20230;-70
2023/02/28 08:07:01;;;;;;;8.80;8.10;;;;;;;-2.30;81.67;97747.34;4990917;28;20214;-70
2023/02/28 08:09:29;;;;;;;9.33;8.43;;;;;;;-2.18;80.31;97753.59;5045109;28;20199;-70
2023/02/28 08:11:57;;;;;;;9.60;8.60;;;;;;;-2.12;80.78;97755.00;5051371;28;20230;-69
2023/02/28 08:14:25;;;;;;;8.90;8.03;;;;;;;-2.08;79.92;97752.16;5043760;28;20246;-70
2023/02/28 08:16:52;;;;;;;9.23;8.33;;;;;;;-2.00;79.70;97748.25;5047769;28;20218;-70
2023/02/28 08:19:20;;;;;;;9.00;8.10;;;;;;;-1.93;78.80;97762.56;5045606;28;20420;-70
2023/02/28 08:21:49;;;;;;;8.60;7.53;;;;;;;-1.84;78.18;97755.97;5025453;28;20199;-70
2023/02/28 08:24:16;;;;;;;9.27;8.33;;;;;;;-1.76;77.81;97757.16;5004864;28;20336;-71
2023/02/28 08:26:44;;;;;;;8.43;7.60;;;;;;;-1.65;76.79;97758.31;5050814;28;20203;-69
2023/02/28 08:29:11;;;;;;;8.67;7.87;;;;;;;-1.62;76.92;97751.13;5048215;28;20207;-72
2023/02/28 08:31:39;;;;;;;9.03;8.23;;;;;;;-1.47;76.21;97754.56;5048151;28;20263;-71
2023/02/28 08:34:07;;;;;;;9.63;8.73;;;;;;;-1.51;75.73;97763.50;5048181;28;20227;-70
2023/02/28 08:36:35;;;;;;;8.27;7.43;;;;;;;-1.42;75.43;97763.84;5026451;28;20223;-70
2023/02/28 08:39:04;;;;;;;9.63;8.83;;;;;;;-1.31;75.06;97769.25;5003029;28;20219;-69
2023/02/28 08:41:32;;;;;;;9.10;8.30;;;;;;;-1.06;74.72;97775.50;5050271;28;20207;-71
2023/02/28 08:44:00;;;;;;;9.27;8.33;;;;;;;-0.63;74.42;97774.53;5050544;28;20302;-69
2023/02/28 08:46:28;;;;;;;9.47;8.57;;;;;;;0.13;72.87;97772.19;5046370;28;20245;-71
2023/02/28 08:48:59;;;;;;;10.63;8.73;;;;;;;0.47;70.38;97774.28;5048852;28;20191;-70
2023/02/28 08:51:26;;;;;;;10.00;9.00;;;;;;;0.79;69.52;97776.44;5023259;28;20241;-71
2023/02/28 08:53:56;;;;;;;9.87;9.00;;;;;;;0.83;68.88;97768.25;5031083;28;20789;-70
2023/02/28 08:56:26;;;;;;;8.37;7.57;;;;;;;0.69;68.19;97777.03;5031078;28;20994;-72
2023/02/28 08:58:56;;;;;;;10.63;9.27;;;;;;;0.21;68.80;97782.09;5051406;28;20203;-70
2023/02/28 09:01:27;;;;;;;8.40;7.67;;;;;;;-0.16;70.45;97770.59;5047987;28;20195;-71
2023/02/28 09:03:56;;;;;;;8.23;7.50;;;;;;;-0.51;71.08;97775.53;5048613;28;20745;-70
2023/02/28 09:06:27;;;;;;;8.73;7.77;;;;;;;-0.45;71.30;97777.72;5024154;28;21313;-70
2023/02/28 09:08:59;;;;;;;10.23;9.27;;;;;;;-0.25;70.62;97767.75;5026433;28;20256;-70
2023/02/28 09:11:28;;;;;;;10.20;8.87;;;;;;;-0.42;70.36;97769.72;5036423;28;20297;-70
2023/02/28 09:13:56;;;;;;;8.87;8.07;;;;;;;-0.37;70.84;97769.44;5049474;28;20222;-70
2023/02/28 09:16:24;;;;;;;9.07;8.27;;;;;;;-0.42;70.68;97776.69;5043730;28;20203;-71
2023/02/28 09:18:51;;;;;;;8.37;7.67;;;;;;;-0.37;71.06;97772.84;5049412;28;20679;-70
2023/02/28 09:21:20;;;;;;;9.57;8.67;;;;;;;-0.43;71.12;97765.44;5022254;28;20680;-70
2023/02/28 09:23:49;;;;;;;7.47;6.87;;;;;;;-0.37;70.94;97770.25;5051331;28;20356;-72
2023/02/28 09:26:19;;;;;;;10.63;8.87;;;;;;;-0.31;70.79;97774.22;5003638;28;20407;-71
2023/02/28 09:28:48;;;;;;;9.00;8.20;;;;;;;0.06;70.46;97768.31;5047346;28;20367;-71
2023/02/28 09:31:20;;;;;;;8.77;7.97;;;;;;;-0.02;70.06;97774.03;5041391;28;20195;-71
2023/02/28 09:33:48;;;;;;;8.77;7.83;;;;;;;-0.08;69.87;97770.09;5046858;28;20233;-70
2023/02/28 09:36:16;;;;;;;8.40;7.57;;;;;;;-0.07;69.37;97763.94;5044401;28;20203;-71
2023/02/28 09:38:45;;;;;;;9.20;8.40;;;;;;;0.01;69.64;97776.47;5024780;28;20223;-70
2023/02/28 09:41:17;;;;;;;8.77;8.07;;;;;;;-0.01;69.43;97767.88;5000173;28;21806;-71
2023/02/28 09:43:48;;;;;;;9.47;8.40;;;;;;;-0.07;69.37;97771.75;5049685;28;20226;-71
2023/02/28 09:46:26;;;;;;;8.60;7.87;;;;;;;0.05;69.32;97775.31;5046669;28;20324;-70
2023/02/28 09:48:56;;;;;;;8.90;8.07;;;;;;;0.29;69.49;97774.59;5043937;28;20199;-70
2023/02/28 09:51:34;;;;;;;7.83;7.23;;;;;;;0.08;68.67;97775.13;5044016;28;20416;-70
2023/02/28 09:54:02;;;;;;;8.83;8.03;;;;;;;0.14;69.77;97773.84;5026658;28;20241;-69
2023/02/28 09:56:34;;;;;;;8.87;7.90;;;;;;;0.26;68.95;97780.00;5001911;28;20219;-72
2023/02/28 09:59:06;;;;;;;10.17;9.10;;;;;;;0.27;68.87;97779.91;5048220;28;20202;-69
2023/02/28 10:01:40;;;;;;;9.70;8.90;;;;;;;0.19;69.91;97778.75;5046873;28;20218;-70
2023/02/28 10:04:15;;;;;;;8.97;8.17;;;;;;;0.39;68.62;97769.56;5042897;28;20223;-68
2023/02/28 10:06:46;;;;;;;9.53;8.63;;;;;;;0.60;68.45;97776.88;5047404;28;20202;-71
2023/02/28 10:09:16;;;;;;;9.77;8.83;;;;;;;0.52;68.35;97778.22;5024107;28;20207;-71
2023/02/28 10:11:44;;;;;;;9.23;8.33;;;;;;;0.73;68.47;97775.06;5003550;28;20614;-71
2023/02/28 10:14:21;;;;;;;9.53;8.63;;;;;;;1.02;68.88;97774.81;5048226;28;20211;-71
2023/02/28 10:16:51;;;;;;;9.83;8.93;;;;;;;1.22;69.00;97781.19;5043947;28;20604;-70
2023/02/28 10:19:21;;;;;;;9.13;8.33;;;;;;;1.49;68.45;97771.47;5042741;28;20195;-69
2023/02/28 10:21:55;;;;;;;9.83;8.87;;;;;;;1.25;68.39;97770.53;5047391;28;20213;-72
2023/02/28 10:24:28;;;;;;;9.33;8.33;;;;;;;1.40;68.29;97779.03;5027870;28;20440;-69
2023/02/28 10:27:00;;;;;;;9.83;8.90;;;;;;;1.25;68.35;97777.53;5001608;28;20706;-69
2023/02/28 10:29:32;;;;;;;11.27;8.33;;;;;;;1.28;68.07;97774.69;5047301;28;20203;-70
2023/02/28 10:32:02;;;;;;;8.77;7.90;;;;;;;1.66;68.27;97781.50;5042934;28;20721;-70
2023/02/28 10:34:30;;;;;;;11.33;9.40;;;;;;;2.01;66.67;97783.28;5048547;28;20228;-70
2023/02/28 10:37:07;;;;;;;8.93;8.00;;;;;;;2.12;65.87;97779.06;5048731;28;20199;-69
2023/02/28 10:39:39;;;;;;;9.33;8.27;;;;;;;2.06;65.37;97784.72;5027934;28;20284;-72
2023/02/28 10:42:25;;;;;;;8.63;7.73;;;;;;;1.74;64.70;97786.19;5001794;28;20527;-69
2023/02/28 10:45:11;;;;;;;9.43;8.63;;;;;;;1.56;65.40;97772.69;5041714;28;20501;-68
2023/02/28 10:47:49;;;;;;;8.93;8.13;;;;;;;1.49;65.91;97774.09;5052905;28;20195;-71
2023/02/28 10:50:36;;;;;;;10.60;8.60;;;;;;;1.58;65.29;97773.41;5049871;28;20202;-70
2023/02/28 10:53:17;;;;;;;10.20;9.17;;;;;;;1.68;66.09;97774.38;5048296;28;20256;-70
2023/02/28 10:55:45;;;;;;;9.80;8.53;;;;;;;1.66;65.81;97781.50;5031939;28;20231;-70
2023/02/28 10:58:22;;;;;;;9.13;8.20;;;;;;;1.95;65.91;97778.53;5002138;28;22344;-71
2023/02/28 11:00:52;;;;;;;8.83;7.93;;;;;;;1.92;65.77;97765.69;5052172;28;20211;-71
2023/02/28 11:03:31;;;;;;;10.20;9.13;;;;;;;1.87;65.87;97775.66;5048197;28;20206;-70
2023/02/28 11:05:59;;;;;;;10.07;9.07;;;;;;;1.77;65.23;97787.75;5044705;28;20250;-70
2023/02/28 11:08:27;;;;;;;9.37;8.57;;;;;;;1.47;65.30;97783.81;5049982;28;20241;-70
2023/02/28 11:10:56;;;;;;;8.67;7.83;;;;;;;1.64;65.47;97787.81;5030617;28;20223;-70
2023/02/28 11:13:27;;;;;;;9.17;8.20;;;;;;;1.47;65.14;97783.81;5050696;28;20281;-71
2023/02/28 11:15:58;;;;;;;10.43;9.33;;;;;;;1.42;64.79;97782.38;4999929;28;21100;-69
2023/02/28 11:18:30;;;;;;;8.33;7.53;;;;;;;1.34;64.70;97787.31;5044924;28;20206;-72
2023/02/28 11:21:00;;;;;;;9.27;8.37;;;;;;;1.58;64.66;97776.03;5047403;28;20722;-71
2023/02/28 11:23:30;;;;;;;9.07;7.93;;;;;;;1.85;64.90;97778.38;5050474;28;20199;-71
2023/02/28 11:25:59;;;;;;;9.97;9.00;;;;;;;1.81;64.34;97783.94;5029573;28;20602;-71
2023/02/28 11:28:30;;;;;;;9.07;8.17;;;;;;;1.81;63.86;97781.34;5052385;28;20217;-72
2023/02/28 11:31:06;;;;;;;8.83;8.03;;;;;;;1.32;63.94;97778.75;5003474;28;20211;-71
2023/02/28 11:33:41;;;;;;;9.97;8.83;;;;;;;1.49;64.71;97769.69;5051254;28;20237;-70
2023/02/28 11:36:12;;;;;;;9.93;9.03;;;;;;;1.61;64.67;97775.78;5049735;28;20964;-70
2023/02/28 11:38:40;;;;;;;9.50;8.53;;;;;;;1.53;64.29;97776.38;5050798;28;20399;-71
2023/02/28 11:41:27;;;;;;;8.73;7.83;;;;;;;1.68;64.82;97774.38;5027650;28;20398;-71
2023/02/28 11:44:06;;;;;;;8.57;7.77;;;;;;;1.64;63.99;97772.13;5051207;28;20223;-70